sensor_id;sensor_type;location;lat;lon;timestamp;temperature;humidity
23827;DHT22;12094;50.822;4.376;2022-10-22T00:02:55;15.90;99.90
23827;DHT22;12094;50.822;4.376;2022-10-22T00:05:22;15.90;99.90
23827;DHT22;12094;50.822;4.376;2022-10-22T00:07:50;15.90;99.90
23827;DHT22;12094;50.822;4.376;2022-10-22T00:10:19;15.90;99.90
23827;DHT22;12094;50.822;4.376;2022-10-22T00:12:48;15.90;99.90
23827;DHT22;12094;50.822;4.376;2022-10-22T00:15:18;15.90;99.90
23827;DHT22;12094;50.822;4.376;2022-10-22T00:17:45;15.90;99.90
23827;DHT22;12094;50.822;4.376;2022-10-22T00:20:24;15.80;99.90
23827;DHT22;12094;50.822;4.376;2022-10-22T00:23:08;15.70;99.90
23827;DHT22;12094;50.822;4.376;2022-10-22T00:25:39;15.80;99.90
23827;DHT22;12094;50.822;4.376;2022-10-22T00:28:31;15.80;99.90
23827;DHT22;12094;50.822;4.376;2022-10-22T00:31:03;15.80;99.90
23827;DHT22;12094;50.822;4.376;2022-10-22T00:33:30;15.70;99.90
23827;DHT22;12094;50.822;4.376;2022-10-22T00:35:58;15.70;99.90
23827;DHT22;12094;50.822;4.376;2022-10-22T00:38:29;15.70;99.90
23827;DHT22;12094;50.822;4.376;2022-10-22T00:40:56;15.60;99.90
23827;DHT22;12094;50.822;4.376;2022-10-22T00:43:26;15.60;99.90
23827;DHT22;12094;50.822;4.376;2022-10-22T00:45:55;15.70;99.90
23827;DHT22;12094;50.822;4.376;2022-10-22T00:48:28;15.70;99.90
23827;DHT22;12094;50.822;4.376;2022-10-22T00:50:58;15.70;99.90
23827;DHT22;12094;50.822;4.376;2022-10-22T00:53:49;15.70;99.90
23827;DHT22;12094;50.822;4.376;2022-10-22T00:56:19;15.60;99.90
23827;DHT22;12094;50.822;4.376;2022-10-22T00:58:55;15.60;99.90
23827;DHT22;12094;50.822;4.376;2022-10-22T01:01:29;15.60;99.90
23827;DHT22;12094;50.822;4.376;2022-10-22T01:04:02;15.60;99.90
23827;DHT22;12094;50.822;4.376;2022-10-22T01:11:31;15.50;99.90
23827;DHT22;12094;50.822;4.376;2022-10-22T01:21:30;15.40;99.90
23827;DHT22;12094;50.822;4.376;2022-10-22T01:32:02;15.30;99.90
23827;DHT22;12094;50.822;4.376;2022-10-22T01:39:02;15.30;99.90
23827;DHT22;12094;50.822;4.376;2022-10-22T01:41:34;15.30;99.90
23827;DHT22;12094;50.822;4.376;2022-10-22T01:55:20;15.30;99.90
23827;DHT22;12094;50.822;4.376;2022-10-22T02:02:32;15.20;99.90
23827;DHT22;12094;50.822;4.376;2022-10-22T02:09:22;15.20;99.90
23827;DHT22;12094;50.822;4.376;2022-10-22T02:11:57;15.20;99.90
23827;DHT22;12094;50.822;4.376;2022-10-22T02:14:28;15.20;99.90
23827;DHT22;12094;50.822;4.376;2022-10-22T02:21:51;15.10;99.90
23827;DHT22;12094;50.822;4.376;2022-10-22T02:24:27;15.10;99.90
23827;DHT22;12094;50.822;4.376;2022-10-22T02:31:23;15.00;99.90
23827;DHT22;12094;50.822;4.376;2022-10-22T02:33:55;15.10;99.90
23827;DHT22;12094;50.822;4.376;2022-10-22T02:36:24;15.10;99.90
23827;DHT22;12094;50.822;4.376;2022-10-22T02:38:54;15.10;99.90
23827;DHT22;12094;50.822;4.376;2022-10-22T02:41:22;15.10;99.90
23827;DHT22;12094;50.822;4.376;2022-10-22T02:43:55;15.00;99.90
23827;DHT22;12094;50.822;4.376;2022-10-22T02:46:23;15.00;99.90
23827;DHT22;12094;50.822;4.376;2022-10-22T02:48:51;15.10;99.90
23827;DHT22;12094;50.822;4.376;2022-10-22T02:51:18;15.00;99.90
23827;DHT22;12094;50.822;4.376;2022-10-22T02:53:49;15.00;99.90
23827;DHT22;12094;50.822;4.376;2022-10-22T02:56:18;15.00;99.90
23827;DHT22;12094;50.822;4.376;2022-10-22T02:58:46;15.00;99.90
23827;DHT22;12094;50.822;4.376;2022-10-22T03:04:19;15.00;99.90
23827;DHT22;12094;50.822;4.376;2022-10-22T03:06:46;15.00;99.90
23827;DHT22;12094;50.822;4.376;2022-10-22T03:09:15;15.00;99.90
23827;DHT22;12094;50.822;4.376;2022-10-22T03:11:48;15.00;99.90
23827;DHT22;12094;50.822;4.376;2022-10-22T03:14:17;15.00;99.90
23827;DHT22;12094;50.822;4.376;2022-10-22T03:16:47;15.10;99.90
23827;DHT22;12094;50.822;4.376;2022-10-22T03:19:16;15.00;99.90
23827;DHT22;12094;50.822;4.376;2022-10-22T03:21:49;15.00;99.90
23827;DHT22;12094;50.822;4.376;2022-10-22T03:24:21;15.00;99.90
23827;DHT22;12094;50.822;4.376;2022-10-22T03:26:50;15.00;99.90
23827;DHT22;12094;50.822;4.376;2022-10-22T03:29:25;15.00;99.90
23827;DHT22;12094;50.822;4.376;2022-10-22T03:31:54;15.00;99.90
23827;DHT22;12094;50.822;4.376;2022-10-22T03:34:22;15.00;99.90
23827;DHT22;12094;50.822;4.376;2022-10-22T03:36:50;15.00;99.90
23827;DHT22;12094;50.822;4.376;2022-10-22T03:39:18;15.00;99.90
23827;DHT22;12094;50.822;4.376;2022-10-22T03:41:46;15.00;99.90
23827;DHT22;12094;50.822;4.376;2022-10-22T03:44:17;15.10;99.90
23827;DHT22;12094;50.822;4.376;2022-10-22T03:46:47;15.10;99.90
23827;DHT22;12094;50.822;4.376;2022-10-22T03:49:17;15.10;99.90
23827;DHT22;12094;50.822;4.376;2022-10-22T03:51:44;15.10;99.90
23827;DHT22;12094;50.822;4.376;2022-10-22T03:54:30;15.10;99.90
23827;DHT22;12094;50.822;4.376;2022-10-22T03:56:59;15.10;99.90
23827;DHT22;12094;50.822;4.376;2022-10-22T03:59:27;15.10;99.90
23827;DHT22;12094;50.822;4.376;2022-10-22T04:01:56;15.10;99.90
23827;DHT22;12094;50.822;4.376;2022-10-22T04:04:24;15.10;99.90
23827;DHT22;12094;50.822;4.376;2022-10-22T04:06:52;15.10;99.90
23827;DHT22;12094;50.822;4.376;2022-10-22T04:09:19;15.20;99.90
23827;DHT22;12094;50.822;4.376;2022-10-22T04:11:50;15.20;99.90
23827;DHT22;12094;50.822;4.376;2022-10-22T04:14:25;15.10;99.90
23827;DHT22;12094;50.822;4.376;2022-10-22T04:16:54;15.20;99.90
23827;DHT22;12094;50.822;4.376;2022-10-22T04:19:23;15.10;99.90
23827;DHT22;12094;50.822;4.376;2022-10-22T04:21:52;15.20;99.90
23827;DHT22;12094;50.822;4.376;2022-10-22T04:24:19;15.20;99.90
23827;DHT22;12094;50.822;4.376;2022-10-22T04:26:48;15.10;99.90
23827;DHT22;12094;50.822;4.376;2022-10-22T04:29:18;15.20;99.90
23827;DHT22;12094;50.822;4.376;2022-10-22T04:31:45;15.20;99.90
23827;DHT22;12094;50.822;4.376;2022-10-22T04:34:15;15.10;99.90
23827;DHT22;12094;50.822;4.376;2022-10-22T04:36:43;15.10;99.90
23827;DHT22;12094;50.822;4.376;2022-10-22T04:39:37;15.10;99.90
23827;DHT22;12094;50.822;4.376;2022-10-22T04:42:07;15.10;99.90
23827;DHT22;12094;50.822;4.376;2022-10-22T04:44:36;15.10;99.90
23827;DHT22;12094;50.822;4.376;2022-10-22T04:47:05;15.20;99.90
23827;DHT22;12094;50.822;4.376;2022-10-22T04:49:34;15.30;99.90
23827;DHT22;12094;50.822;4.376;2022-10-22T04:52:03;15.20;99.90
23827;DHT22;12094;50.822;4.376;2022-10-22T04:54:32;15.20;99.90
23827;DHT22;12094;50.822;4.376;2022-10-22T04:56:59;15.30;99.90
23827;DHT22;12094;50.822;4.376;2022-10-22T04:59:32;15.20;99.90
23827;DHT22;12094;50.822;4.376;2022-10-22T05:01:59;15.30;99.90
23827;DHT22;12094;50.822;4.376;2022-10-22T05:04:29;15.30;99.90
23827;DHT22;12094;50.822;4.376;2022-10-22T05:06:56;15.40;99.90
23827;DHT22;12094;50.822;4.376;2022-10-22T05:09:28;15.40;99.90
23827;DHT22;12094;50.822;4.376;2022-10-22T05:11:57;15.40;99.90
23827;DHT22;12094;50.822;4.376;2022-10-22T05:14:26;15.50;99.90
23827;DHT22;12094;50.822;4.376;2022-10-22T05:16:54;15.50;99.90
23827;DHT22;12094;50.822;4.376;2022-10-22T05:19:28;15.50;99.90
23827;DHT22;12094;50.822;4.376;2022-10-22T05:21:57;15.50;99.90
23827;DHT22;12094;50.822;4.376;2022-10-22T05:24:27;15.40;99.90
23827;DHT22;12094;50.822;4.376;2022-10-22T05:26:57;15.50;99.90
23827;DHT22;12094;50.822;4.376;2022-10-22T05:29:30;15.60;99.90
23827;DHT22;12094;50.822;4.376;2022-10-22T05:32:01;15.60;99.90
23827;DHT22;12094;50.822;4.376;2022-10-22T05:34:55;15.50;99.90
23827;DHT22;12094;50.822;4.376;2022-10-22T05:37:23;15.50;99.90
23827;DHT22;12094;50.822;4.376;2022-10-22T05:39:51;15.60;99.90
23827;DHT22;12094;50.822;4.376;2022-10-22T05:42:38;15.50;99.90
23827;DHT22;12094;50.822;4.376;2022-10-22T05:45:07;15.60;99.90
23827;DHT22;12094;50.822;4.376;2022-10-22T05:47:38;15.60;99.90
23827;DHT22;12094;50.822;4.376;2022-10-22T05:50:06;15.60;99.90
23827;DHT22;12094;50.822;4.376;2022-10-22T05:52:35;15.50;99.90
23827;DHT22;12094;50.822;4.376;2022-10-22T05:55:02;15.60;99.90
23827;DHT22;12094;50.822;4.376;2022-10-22T05:57:31;15.60;99.90
23827;DHT22;12094;50.822;4.376;2022-10-22T06:00:30;15.50;99.90
23827;DHT22;12094;50.822;4.376;2022-10-22T06:03:00;15.50;99.90
23827;DHT22;12094;50.822;4.376;2022-10-22T06:05:27;15.50;99.90
23827;DHT22;12094;50.822;4.376;2022-10-22T06:07:56;15.50;99.90
23827;DHT22;12094;50.822;4.376;2022-10-22T06:10:24;15.50;99.90
23827;DHT22;12094;50.822;4.376;2022-10-22T06:12:55;15.50;99.90
23827;DHT22;12094;50.822;4.376;2022-10-22T06:15:22;15.50;99.90
23827;DHT22;12094;50.822;4.376;2022-10-22T06:17:50;15.50;99.90
23827;DHT22;12094;50.822;4.376;2022-10-22T06:20:23;15.40;99.90
23827;DHT22;12094;50.822;4.376;2022-10-22T06:22:51;15.50;99.90
23827;DHT22;12094;50.822;4.376;2022-10-22T06:25:19;15.50;99.90
23827;DHT22;12094;50.822;4.376;2022-10-22T06:27:56;15.50;99.90
23827;DHT22;12094;50.822;4.376;2022-10-22T06:30:24;15.40;99.90
23827;DHT22;12094;50.822;4.376;2022-10-22T06:32:53;15.40;99.90
23827;DHT22;12094;50.822;4.376;2022-10-22T06:35:24;15.40;99.90
23827;DHT22;12094;50.822;4.376;2022-10-22T06:37:54;15.40;99.90
23827;DHT22;12094;50.822;4.376;2022-10-22T06:40:22;15.30;99.90
23827;DHT22;12094;50.822;4.376;2022-10-22T06:42:52;15.30;99.90
23827;DHT22;12094;50.822;4.376;2022-10-22T06:45:20;15.30;99.90
23827;DHT22;12094;50.822;4.376;2022-10-22T06:47:48;15.30;99.90
23827;DHT22;12094;50.822;4.376;2022-10-22T06:50:15;15.30;99.90
23827;DHT22;12094;50.822;4.376;2022-10-22T06:52:42;15.40;99.90
23827;DHT22;12094;50.822;4.376;2022-10-22T06:55:10;15.40;99.90
23827;DHT22;12094;50.822;4.376;2022-10-22T06:57:37;15.40;99.90
23827;DHT22;12094;50.822;4.376;2022-10-22T07:00:06;15.40;99.90
23827;DHT22;12094;50.822;4.376;2022-10-22T07:02:34;15.40;99.90
23827;DHT22;12094;50.822;4.376;2022-10-22T07:05:07;15.50;99.90
23827;DHT22;12094;50.822;4.376;2022-10-22T07:11:53;15.50;99.90
23827;DHT22;12094;50.822;4.376;2022-10-22T07:15:00;15.50;99.90
23827;DHT22;12094;50.822;4.376;2022-10-22T07:17:36;15.60;99.90
23827;DHT22;12094;50.822;4.376;2022-10-22T07:20:07;15.50;99.90
23827;DHT22;12094;50.822;4.376;2022-10-22T07:23:05;15.60;99.90
23827;DHT22;12094;50.822;4.376;2022-10-22T07:26:07;15.60;99.90
23827;DHT22;12094;50.822;4.376;2022-10-22T07:29:41;15.60;99.90
23827;DHT22;12094;50.822;4.376;2022-10-22T07:40:00;15.60;99.90
23827;DHT22;12094;50.822;4.376;2022-10-22T07:43:09;15.70;99.90
23827;DHT22;12094;50.822;4.376;2022-10-22T07:50:41;15.80;99.90
23827;DHT22;12094;50.822;4.376;2022-10-22T07:58:10;15.80;99.90
23827;DHT22;12094;50.822;4.376;2022-10-22T08:00:53;15.90;99.90
23827;DHT22;12094;50.822;4.376;2022-10-22T08:03:32;15.90;99.90
23827;DHT22;12094;50.822;4.376;2022-10-22T08:06:17;15.90;99.90
23827;DHT22;12094;50.822;4.376;2022-10-22T08:08:48;15.90;99.90
23827;DHT22;12094;50.822;4.376;2022-10-22T08:11:17;15.90;99.90
23827;DHT22;12094;50.822;4.376;2022-10-22T08:13:44;16.00;99.90
23827;DHT22;12094;50.822;4.376;2022-10-22T08:16:14;16.00;99.90
23827;DHT22;12094;50.822;4.376;2022-10-22T08:18:45;16.20;99.90
23827;DHT22;12094;50.822;4.376;2022-10-22T08:21:13;16.20;99.90
23827;DHT22;12094;50.822;4.376;2022-10-22T08:23:41;16.20;99.90
23827;DHT22;12094;50.822;4.376;2022-10-22T08:26:09;16.20;99.90
23827;DHT22;12094;50.822;4.376;2022-10-22T08:28:37;16.20;99.90
23827;DHT22;12094;50.822;4.376;2022-10-22T08:31:06;16.20;99.90
23827;DHT22;12094;50.822;4.376;2022-10-22T08:33:35;16.10;99.90
23827;DHT22;12094;50.822;4.376;2022-10-22T08:36:06;16.10;99.90
23827;DHT22;12094;50.822;4.376;2022-10-22T08:38:33;16.00;99.90
23827;DHT22;12094;50.822;4.376;2022-10-22T08:41:16;16.00;99.90
23827;DHT22;12094;50.822;4.376;2022-10-22T08:46:38;16.20;99.90
23827;DHT22;12094;50.822;4.376;2022-10-22T08:49:23;16.10;99.90
23827;DHT22;12094;50.822;4.376;2022-10-22T08:51:54;16.10;99.90
23827;DHT22;12094;50.822;4.376;2022-10-22T08:54:38;16.20;99.90
23827;DHT22;12094;50.822;4.376;2022-10-22T09:00:14;16.20;99.90
23827;DHT22;12094;50.822;4.376;2022-10-22T09:03:01;16.20;99.90
23827;DHT22;12094;50.822;4.376;2022-10-22T09:05:45;16.20;99.90
23827;DHT22;12094;50.822;4.376;2022-10-22T09:08:23;16.30;99.90
23827;DHT22;12094;50.822;4.376;2022-10-22T09:11:14;16.50;99.90
23827;DHT22;12094;50.822;4.376;2022-10-22T09:13:47;16.60;99.90
23827;DHT22;12094;50.822;4.376;2022-10-22T09:16:25;16.70;99.90
23827;DHT22;12094;50.822;4.376;2022-10-22T09:19:08;16.70;99.90
23827;DHT22;12094;50.822;4.376;2022-10-22T09:27:00;16.80;99.90
23827;DHT22;12094;50.822;4.376;2022-10-22T09:29:31;16.80;99.90
23827;DHT22;12094;50.822;4.376;2022-10-22T09:31:59;16.80;99.90
23827;DHT22;12094;50.822;4.376;2022-10-22T09:34:28;16.70;99.90
23827;DHT22;12094;50.822;4.376;2022-10-22T09:37:08;16.70;99.90
23827;DHT22;12094;50.822;4.376;2022-10-22T09:39:43;16.70;99.90
23827;DHT22;12094;50.822;4.376;2022-10-22T09:42:17;16.70;99.90
23827;DHT22;12094;50.822;4.376;2022-10-22T09:44:58;16.50;99.90
23827;DHT22;12094;50.822;4.376;2022-10-22T09:47:36;16.60;99.90
23827;DHT22;12094;50.822;4.376;2022-10-22T09:50:44;16.60;99.90
23827;DHT22;12094;50.822;4.376;2022-10-22T09:53:21;16.60;99.90
23827;DHT22;12094;50.822;4.376;2022-10-22T09:55:52;16.80;99.90
23827;DHT22;12094;50.822;4.376;2022-10-22T09:58:23;16.90;99.90
23827;DHT22;12094;50.822;4.376;2022-10-22T10:00:56;17.00;99.90
23827;DHT22;12094;50.822;4.376;2022-10-22T10:03:27;16.90;99.90
23827;DHT22;12094;50.822;4.376;2022-10-22T10:05:59;16.90;99.90
23827;DHT22;12094;50.822;4.376;2022-10-22T10:08:32;16.80;99.90
23827;DHT22;12094;50.822;4.376;2022-10-22T10:11:26;16.80;99.90
23827;DHT22;12094;50.822;4.376;2022-10-22T10:14:00;17.00;99.90
23827;DHT22;12094;50.822;4.376;2022-10-22T10:19:13;17.20;99.90
23827;DHT22;12094;50.822;4.376;2022-10-22T10:27:12;17.30;99.90
23827;DHT22;12094;50.822;4.376;2022-10-22T10:35:10;17.30;99.90
23827;DHT22;12094;50.822;4.376;2022-10-22T10:49:19;18.40;99.90
23827;DHT22;12094;50.822;4.376;2022-10-22T10:54:44;18.50;99.90
23827;DHT22;12094;50.822;4.376;2022-10-22T10:57:48;18.90;99.90
23827;DHT22;12094;50.822;4.376;2022-10-22T11:00:15;19.50;99.90
23827;DHT22;12094;50.822;4.376;2022-10-22T11:09:23;20.20;99.90
23827;DHT22;12094;50.822;4.376;2022-10-22T11:11:57;20.30;99.90
23827;DHT22;12094;50.822;4.376;2022-10-22T11:14:55;20.70;99.90
23827;DHT22;12094;50.822;4.376;2022-10-22T11:17:31;20.80;99.90
23827;DHT22;12094;50.822;4.376;2022-10-22T11:22:51;20.30;99.90
23827;DHT22;12094;50.822;4.376;2022-10-22T11:25:44;20.10;99.90
23827;DHT22;12094;50.822;4.376;2022-10-22T11:28:17;20.40;99.90
23827;DHT22;12094;50.822;4.376;2022-10-22T11:30:56;20.80;99.90
23827;DHT22;12094;50.822;4.376;2022-10-22T11:34:14;21.00;99.90
23827;DHT22;12094;50.822;4.376;2022-10-22T11:36:32;20.90;99.90
23827;DHT22;12094;50.822;4.376;2022-10-22T11:39:03;21.60;99.90
23827;DHT22;12094;50.822;4.376;2022-10-22T11:41:32;22.20;99.90
23827;DHT22;12094;50.822;4.376;2022-10-22T11:44:20;22.10;99.90
23827;DHT22;12094;50.822;4.376;2022-10-22T11:46:57;23.10;99.90
23827;DHT22;12094;50.822;4.376;2022-10-22T11:49:27;23.10;99.90
23827;DHT22;12094;50.822;4.376;2022-10-22T11:55:01;20.70;99.90
23827;DHT22;12094;50.822;4.376;2022-10-22T11:57:36;20.20;99.90
23827;DHT22;12094;50.822;4.376;2022-10-22T12:00:34;20.10;99.90
23827;DHT22;12094;50.822;4.376;2022-10-22T12:03:40;19.80;99.90
23827;DHT22;12094;50.822;4.376;2022-10-22T12:11:19;19.20;99.90
23827;DHT22;12094;50.822;4.376;2022-10-22T12:16:50;19.10;99.90
23827;DHT22;12094;50.822;4.376;2022-10-22T12:19:23;19.10;99.90
23827;DHT22;12094;50.822;4.376;2022-10-22T12:21:57;18.90;99.90
23827;DHT22;12094;50.822;4.376;2022-10-22T12:24:29;19.10;99.90
23827;DHT22;12094;50.822;4.376;2022-10-22T12:26:58;19.50;99.90
23827;DHT22;12094;50.822;4.376;2022-10-22T12:29:26;20.00;99.90
23827;DHT22;12094;50.822;4.376;2022-10-22T12:32:01;20.40;99.90
23827;DHT22;12094;50.822;4.376;2022-10-22T12:34:28;19.90;99.90
23827;DHT22;12094;50.822;4.376;2022-10-22T12:36:55;19.80;99.90
23827;DHT22;12094;50.822;4.376;2022-10-22T12:39:26;19.90;99.90
23827;DHT22;12094;50.822;4.376;2022-10-22T12:41:54;20.30;99.90
23827;DHT22;12094;50.822;4.376;2022-10-22T12:44:21;20.90;99.90
23827;DHT22;12094;50.822;4.376;2022-10-22T12:46:50;21.30;99.90
23827;DHT22;12094;50.822;4.376;2022-10-22T12:49:36;21.80;99.90
23827;DHT22;12094;50.822;4.376;2022-10-22T12:52:13;21.70;99.90
23827;DHT22;12094;50.822;4.376;2022-10-22T12:54:44;21.10;99.90
23827;DHT22;12094;50.822;4.376;2022-10-22T12:57:16;20.60;99.90
23827;DHT22;12094;50.822;4.376;2022-10-22T12:59:50;20.30;99.90
23827;DHT22;12094;50.822;4.376;2022-10-22T13:02:23;20.30;99.90
23827;DHT22;12094;50.822;4.376;2022-10-22T13:05:14;20.20;99.90
23827;DHT22;12094;50.822;4.376;2022-10-22T13:07:47;20.10;99.90
23827;DHT22;12094;50.822;4.376;2022-10-22T13:12:55;19.90;99.90
23827;DHT22;12094;50.822;4.376;2022-10-22T13:18:22;19.60;99.90
23827;DHT22;12094;50.822;4.376;2022-10-22T13:21:00;19.70;99.90
23827;DHT22;12094;50.822;4.376;2022-10-22T13:23:32;19.70;99.90
23827;DHT22;12094;50.822;4.376;2022-10-22T13:28:32;19.60;99.90
23827;DHT22;12094;50.822;4.376;2022-10-22T13:31:14;19.70;99.90
23827;DHT22;12094;50.822;4.376;2022-10-22T13:33:44;19.70;99.90
23827;DHT22;12094;50.822;4.376;2022-10-22T13:36:14;19.70;99.90
23827;DHT22;12094;50.822;4.376;2022-10-22T13:38:45;19.50;99.90
23827;DHT22;12094;50.822;4.376;2022-10-22T13:41:24;19.60;99.90
23827;DHT22;12094;50.822;4.376;2022-10-22T13:43:52;19.50;99.90
23827;DHT22;12094;50.822;4.376;2022-10-22T13:46:21;19.50;99.90
23827;DHT22;12094;50.822;4.376;2022-10-22T13:48:52;19.50;99.90
23827;DHT22;12094;50.822;4.376;2022-10-22T13:51:41;19.60;99.90
23827;DHT22;12094;50.822;4.376;2022-10-22T13:54:16;19.60;99.90
23827;DHT22;12094;50.822;4.376;2022-10-22T13:56:47;19.70;99.90
23827;DHT22;12094;50.822;4.376;2022-10-22T13:59:17;19.80;99.90
23827;DHT22;12094;50.822;4.376;2022-10-22T14:01:50;19.70;99.90
23827;DHT22;12094;50.822;4.376;2022-10-22T14:04:18;19.70;99.90
23827;DHT22;12094;50.822;4.376;2022-10-22T14:06:48;19.90;99.90
23827;DHT22;12094;50.822;4.376;2022-10-22T14:09:21;19.90;99.90
23827;DHT22;12094;50.822;4.376;2022-10-22T14:11:50;20.00;99.90
23827;DHT22;12094;50.822;4.376;2022-10-22T14:14:17;20.10;99.90
23827;DHT22;12094;50.822;4.376;2022-10-22T14:16:46;20.20;99.90
23827;DHT22;12094;50.822;4.376;2022-10-22T14:19:16;20.30;99.90
23827;DHT22;12094;50.822;4.376;2022-10-22T14:21:44;20.30;99.90
23827;DHT22;12094;50.822;4.376;2022-10-22T14:24:18;20.10;99.90
23827;DHT22;12094;50.822;4.376;2022-10-22T14:26:46;20.00;99.90
23827;DHT22;12094;50.822;4.376;2022-10-22T14:29:13;19.90;99.90
23827;DHT22;12094;50.822;4.376;2022-10-22T14:31:41;19.70;99.90
23827;DHT22;12094;50.822;4.376;2022-10-22T14:34:15;19.60;99.90
23827;DHT22;12094;50.822;4.376;2022-10-22T14:36:46;19.50;99.90
23827;DHT22;12094;50.822;4.376;2022-10-22T14:39:40;19.50;99.90
23827;DHT22;12094;50.822;4.376;2022-10-22T14:42:10;19.60;99.90
23827;DHT22;12094;50.822;4.376;2022-10-22T14:44:39;19.70;99.90
23827;DHT22;12094;50.822;4.376;2022-10-22T14:47:07;19.80;99.90
23827;DHT22;12094;50.822;4.376;2022-10-22T14:49:35;19.90;99.90
23827;DHT22;12094;50.822;4.376;2022-10-22T14:52:03;19.70;99.90
23827;DHT22;12094;50.822;4.376;2022-10-22T14:54:31;19.60;99.90
23827;DHT22;12094;50.822;4.376;2022-10-22T14:57:00;19.60;99.90
23827;DHT22;12094;50.822;4.376;2022-10-22T14:59:30;19.60;99.90
23827;DHT22;12094;50.822;4.376;2022-10-22T15:01:59;19.50;99.90
23827;DHT22;12094;50.822;4.376;2022-10-22T15:04:26;19.50;99.90
23827;DHT22;12094;50.822;4.376;2022-10-22T15:06:55;19.50;99.90
23827;DHT22;12094;50.822;4.376;2022-10-22T15:09:23;19.40;99.90
23827;DHT22;12094;50.822;4.376;2022-10-22T15:11:51;19.30;99.90
23827;DHT22;12094;50.822;4.376;2022-10-22T15:14:19;19.30;99.90
23827;DHT22;12094;50.822;4.376;2022-10-22T15:16:48;19.40;99.90
23827;DHT22;12094;50.822;4.376;2022-10-22T15:19:15;19.40;99.90
23827;DHT22;12094;50.822;4.376;2022-10-22T15:21:43;19.40;99.90
23827;DHT22;12094;50.822;4.376;2022-10-22T15:24:10;19.30;99.90
23827;DHT22;12094;50.822;4.376;2022-10-22T15:26:37;19.40;99.90
23827;DHT22;12094;50.822;4.376;2022-10-22T15:29:05;19.40;99.90
23827;DHT22;12094;50.822;4.376;2022-10-22T15:31:45;19.20;99.90
23827;DHT22;12094;50.822;4.376;2022-10-22T15:34:24;19.20;99.90
23827;DHT22;12094;50.822;4.376;2022-10-22T15:36:55;19.20;99.90
23827;DHT22;12094;50.822;4.376;2022-10-22T15:39:22;19.20;99.90
23827;DHT22;12094;50.822;4.376;2022-10-22T15:41:51;19.20;99.90
23827;DHT22;12094;50.822;4.376;2022-10-22T15:44:24;19.20;99.90
23827;DHT22;12094;50.822;4.376;2022-10-22T15:46:55;19.20;99.90
23827;DHT22;12094;50.822;4.376;2022-10-22T15:49:24;19.30;99.90
23827;DHT22;12094;50.822;4.376;2022-10-22T15:51:52;19.30;99.90
23827;DHT22;12094;50.822;4.376;2022-10-22T15:54:22;19.30;99.90
23827;DHT22;12094;50.822;4.376;2022-10-22T15:56:54;19.20;99.90
23827;DHT22;12094;50.822;4.376;2022-10-22T15:59:21;19.30;99.90
23827;DHT22;12094;50.822;4.376;2022-10-22T16:01:50;19.20;99.90
23827;DHT22;12094;50.822;4.376;2022-10-22T16:04:17;19.20;99.90
23827;DHT22;12094;50.822;4.376;2022-10-22T16:06:49;19.10;99.90
23827;DHT22;12094;50.822;4.376;2022-10-22T16:09:23;19.00;99.90
23827;DHT22;12094;50.822;4.376;2022-10-22T16:11:52;18.90;99.90
23827;DHT22;12094;50.822;4.376;2022-10-22T16:14:21;18.80;99.90
23827;DHT22;12094;50.822;4.376;2022-10-22T16:16:52;18.70;99.90
23827;DHT22;12094;50.822;4.376;2022-10-22T16:19:22;18.70;99.90
23827;DHT22;12094;50.822;4.376;2022-10-22T16:21:52;18.70;99.90
23827;DHT22;12094;50.822;4.376;2022-10-22T16:24:21;18.70;99.90
23827;DHT22;12094;50.822;4.376;2022-10-22T16:26:49;18.70;99.90
23827;DHT22;12094;50.822;4.376;2022-10-22T16:29:19;18.70;99.90
23827;DHT22;12094;50.822;4.376;2022-10-22T16:31:46;18.60;99.90
23827;DHT22;12094;50.822;4.376;2022-10-22T16:34:14;18.60;99.90
23827;DHT22;12094;50.822;4.376;2022-10-22T16:36:44;18.50;99.90
23827;DHT22;12094;50.822;4.376;2022-10-22T16:39:12;18.40;99.90
23827;DHT22;12094;50.822;4.376;2022-10-22T16:41:40;18.40;99.90
23827;DHT22;12094;50.822;4.376;2022-10-22T16:44:08;18.40;99.90
23827;DHT22;12094;50.822;4.376;2022-10-22T16:46:36;18.30;99.90
23827;DHT22;12094;50.822;4.376;2022-10-22T16:49:07;18.40;99.90
23827;DHT22;12094;50.822;4.376;2022-10-22T16:51:35;18.30;99.90
23827;DHT22;12094;50.822;4.376;2022-10-22T16:54:03;18.30;99.90
23827;DHT22;12094;50.822;4.376;2022-10-22T16:56:37;18.20;99.90
23827;DHT22;12094;50.822;4.376;2022-10-22T16:59:05;18.20;99.90
23827;DHT22;12094;50.822;4.376;2022-10-22T17:01:34;18.10;99.90
23827;DHT22;12094;50.822;4.376;2022-10-22T17:04:06;18.10;99.90
23827;DHT22;12094;50.822;4.376;2022-10-22T17:06:35;18.00;99.90
23827;DHT22;12094;50.822;4.376;2022-10-22T17:09:04;18.10;99.90
23827;DHT22;12094;50.822;4.376;2022-10-22T17:11:34;17.90;99.90
23827;DHT22;12094;50.822;4.376;2022-10-22T17:14:08;17.90;99.90
23827;DHT22;12094;50.822;4.376;2022-10-22T17:16:36;17.80;99.90
23827;DHT22;12094;50.822;4.376;2022-10-22T17:19:06;17.80;99.90
23827;DHT22;12094;50.822;4.376;2022-10-22T17:21:35;17.70;99.90
23827;DHT22;12094;50.822;4.376;2022-10-22T17:24:03;17.70;99.90
23827;DHT22;12094;50.822;4.376;2022-10-22T17:26:31;17.60;99.90
23827;DHT22;12094;50.822;4.376;2022-10-22T17:29:06;17.60;99.90
23827;DHT22;12094;50.822;4.376;2022-10-22T17:31:35;17.60;99.90
23827;DHT22;12094;50.822;4.376;2022-10-22T17:34:08;17.70;99.90
23827;DHT22;12094;50.822;4.376;2022-10-22T17:36:36;17.70;99.90
23827;DHT22;12094;50.822;4.376;2022-10-22T17:39:06;17.70;99.90
23827;DHT22;12094;50.822;4.376;2022-10-22T17:41:36;17.70;99.90
23827;DHT22;12094;50.822;4.376;2022-10-22T17:44:16;17.70;99.90
23827;DHT22;12094;50.822;4.376;2022-10-22T17:46:46;17.80;99.90
23827;DHT22;12094;50.822;4.376;2022-10-22T17:49:18;17.70;99.90
23827;DHT22;12094;50.822;4.376;2022-10-22T17:51:47;17.80;99.90
23827;DHT22;12094;50.822;4.376;2022-10-22T17:54:17;17.80;99.90
23827;DHT22;12094;50.822;4.376;2022-10-22T17:56:44;17.80;99.90
23827;DHT22;12094;50.822;4.376;2022-10-22T17:59:14;17.70;99.90
23827;DHT22;12094;50.822;4.376;2022-10-22T18:01:43;17.70;99.90
23827;DHT22;12094;50.822;4.376;2022-10-22T18:04:17;17.60;99.90
23827;DHT22;12094;50.822;4.376;2022-10-22T18:06:48;17.60;99.90
23827;DHT22;12094;50.822;4.376;2022-10-22T18:09:18;17.50;99.90
23827;DHT22;12094;50.822;4.376;2022-10-22T18:11:47;17.50;99.90
23827;DHT22;12094;50.822;4.376;2022-10-22T18:14:17;17.50;99.90
23827;DHT22;12094;50.822;4.376;2022-10-22T18:16:46;17.40;99.90
23827;DHT22;12094;50.822;4.376;2022-10-22T18:19:17;17.40;99.90
23827;DHT22;12094;50.822;4.376;2022-10-22T18:21:46;17.40;99.90
23827;DHT22;12094;50.822;4.376;2022-10-22T18:24:16;17.40;99.90
23827;DHT22;12094;50.822;4.376;2022-10-22T18:26:43;17.30;99.90
23827;DHT22;12094;50.822;4.376;2022-10-22T18:29:14;17.30;99.90
23827;DHT22;12094;50.822;4.376;2022-10-22T18:31:44;17.30;99.90